Terminal Aerodrome Forecast
Issued by NWS

Home | Current Version | Previous Version | Graphics & Text | Print | Product List | Glossary Off
Versions: 1 2 3 4 5 6 7 8 9 10 11 12 13 14 15 16 17 18 19 20 21 22 23 24 25 26 27 28 29 30 31 32 33 34 35 36 37 38 39 40 41 42 43 44 45 46 47 48 49 50

000
FTUS43 KDDC 121240 AAC
TAFGCK
TAF AMD
KGCK 121240Z 1213/1312 01016KT P6SM BKN008 OVC018
     FM121400 01016G24KT 6SM BR BKN012
     FM121800 36012G20KT P6SM OVC007
     FM122100 02010KT P6SM BKN025=

USA.gov is the U.S. government's official web portal to all federal, state and local government web resources and services.